Orenge 7 — JL6148 — position and weather

sailwx.info

Track history (hours):
 
Tides and Currents Weather Stations Pressure Air Temp Water Temp Dewpoint Dewpoint Depression Visibility Wind Speed Wind Dir Waves Ship Positions

Orenge 7

Last reported at 2015-Jan-31 22:32 UTC. Time now 2015-Jan-31 22:41 UTC.
Position N 34°37' E 135°26'.

Length 163 m; draft 4.9 m.

Type: Passenger vessel. MMSI: 431500186.

Date/timePositionNaut miles runAvg speedWind from/ knotsBaromVisibWave heightAir tempDewpointWater temp
2015-Jan-31 22:32N 34°37' E 135°26'0 0.0
2015-Jan-31 21:32N 34°37' E 135°26'5 4.8
2015-Jan-31 20:33N 34°36' E 135°20'1717.1
2015-Jan-31 19:33N 34°37' E 134°59'1 0.0
2015-Jan-30 14:33N 34°37' E 134°58'1717.3
2015-Jan-30 13:33N 34°36' E 135°19'6 5.5
2015-Jan-30 12:31N 34°37' E 135°26'0 0.0
2015-Jan-30 11:31N 34°37' E 135°26'0 0.0
2015-Jan-30 10:31N 34°37' E 135°26'0 0.0
2015-Jan-30 09:31N 34°37' E 135°26'0 0.0
2015-Jan-30 08:31N 34°37' E 135°26'0 0.0
2015-Jan-30 07:31N 34°37' E 135°26'0 0.0
2015-Jan-30 06:31N 34°37' E 135°26'0 0.0
2015-Jan-30 05:19N 34°37' E 135°26'0 0.0
2015-Jan-30 04:19N 34°37' E 135°26'0 0.0
2015-Jan-30 03:25N 34°37' E 135°26'0 0.0
2015-Jan-30 02:31N 34°37' E 135°26'0 0.0
2015-Jan-30 01:31N 34°37' E 135°26'0 0.0
2015-Jan-30 00:31N 34°37' E 135°26'0 0.0
2015-Jan-29 23:31N 34°37' E 135°26'0 0.0
2015-Jan-29 22:25N 34°37' E 135°26'0 0.0
2015-Jan-29 21:19N 34°37' E 135°26'7 8.7
2015-Jan-29 20:34N 34°35' E 135°18'1717.2
2015-Jan-29 19:33N 34°36' E 134°57'1 0.0
2015-Jan-28 14:33N 34°37' E 134°58'1717.2
2015-Jan-28 13:33N 34°37' E 135°18'6 5.8
2015-Jan-28 12:30N 34°37' E 135°26'0 0.0
2015-Jan-28 11:30N 34°37' E 135°26'0 0.0
2015-Jan-28 10:30N 34°37' E 135°26'0 0.0
2015-Jan-28 09:30N 34°37' E 135°26'0 0.0
2015-Jan-28 08:30N 34°37' E 135°26'0 0.0
2015-Jan-28 07:24N 34°37' E 135°26'0 0.0
2015-Jan-28 06:30N 34°37' E 135°26'0 0.0
2015-Jan-28 05:24N 34°37' E 135°26'0 0.0
2015-Jan-28 04:30N 34°37' E 135°26'0 0.0
2015-Jan-28 03:30N 34°37' E 135°26'0 0.0
2015-Jan-28 02:24N 34°37' E 135°26'0 0.0
2015-Jan-28 01:30N 34°37' E 135°26'0 0.0
2015-Jan-28 00:24N 34°37' E 135°26'0 0.0
2015-Jan-27 23:12N 34°37' E 135°26'0 0.0
2015-Jan-27 22:24N 34°37' E 135°26'0 0.0
2015-Jan-27 21:24N 34°37' E 135°26'7 7.8
2015-Jan-27 20:33N 34°35' E 135°18'1818.2
2015-Jan-27 19:33N 34°36' E 134°56'1 0.0
2015-Jan-26 14:33N 34°36' E 134°56'1919.0
2015-Jan-26 13:33N 34°37' E 135°19'6 4.7
2015-Jan-26 12:18N 34°37' E 135°26'0 0.0
2015-Jan-26 11:30N 34°37' E 135°26'0 0.0
2015-Jan-26 10:24N 34°37' E 135°26'0 0.0
2015-Jan-26 09:30N 34°37' E 135°26'0 0.0
2015-Jan-26 08:30N 34°37' E 135°26'0 0.0
2015-Jan-26 07:24N 34°37' E 135°26'0 0.0
2015-Jan-26 06:24N 34°37' E 135°26'0 0.0
2015-Jan-26 05:30N 34°37' E 135°26'0 0.0
2015-Jan-26 04:30N 34°37' E 135°26'0 0.0
2015-Jan-26 03:30N 34°37' E 135°26'0 0.0
2015-Jan-26 02:30N 34°37' E 135°26'0 0.0
2015-Jan-26 01:24N 34°37' E 135°26'0 0.0
2015-Jan-26 00:30N 34°37' E 135°26'0 0.0
2015-Jan-25 23:30N 34°37' E 135°26'0 0.0
2015-Jan-25 22:30N 34°37' E 135°26'0 0.0
2015-Jan-25 21:30N 34°37' E 135°26'6 6.5
2015-Jan-25 20:33N 34°35' E 135°19'1918.6
2015-Jan-25 19:33N 34°36' E 134°56'1 0.0
2015-Jan-24 14:33N 34°37' E 134°56'1918.9
2015-Jan-24 13:33N 34°37' E 135°19'6 5.5
2015-Jan-24 12:28N 34°37' E 135°26'0 0.0
2015-Jan-24 11:28N 34°37' E 135°26'0 0.0
2015-Jan-24 10:28N 34°37' E 135°26'0 0.0
2015-Jan-24 09:28N 34°37' E 135°26'0 0.0
2015-Jan-24 08:28N 34°37' E 135°26'0 0.0
2015-Jan-24 07:28N 34°37' E 135°26'0 0.0
2015-Jan-24 06:16N 34°37' E 135°26'0 0.0
2015-Jan-24 05:28N 34°37' E 135°26'0 0.0
2015-Jan-24 04:28N 34°37' E 135°26'0 0.0
2015-Jan-24 03:22N 34°37' E 135°26'0 0.0
2015-Jan-24 02:28N 34°37' E 135°26'0 0.0
2015-Jan-24 01:28N 34°37' E 135°26'0 0.0
2015-Jan-24 00:28N 34°37' E 135°26'0 0.0
2015-Jan-23 23:22N 34°37' E 135°26'0 0.0
2015-Jan-23 22:28N 34°37' E 135°26'0 0.0
2015-Jan-23 21:28N 34°37' E 135°26'5 5.2
2015-Jan-23 20:33N 34°36' E 135°20'1817.6
2015-Jan-23 19:33N 34°37' E 134°59'2119.7
2015-Jan-23 18:29N 34°29' E 134°35'18 0.7
2015-Jan-22 14:33N 34°36' E 134°55'2019.5
2015-Jan-22 13:33N 34°37' E 135°19'6 5.2
2015-Jan-22 12:29N 34°37' E 135°26'0 0.0
2015-Jan-22 11:29N 34°37' E 135°26'0 0.0
2015-Jan-22 10:17N 34°37' E 135°26'0 0.0
2015-Jan-22 09:11N 34°37' E 135°26'0 0.0
2015-Jan-22 08:17N 34°37' E 135°26'0 0.0
2015-Jan-22 07:29N 34°37' E 135°26'0 0.0
2015-Jan-22 06:29N 34°37' E 135°26'0 0.0
2015-Jan-22 05:23N 34°37' E 135°26'0 0.0
2015-Jan-22 04:17N 34°37' E 135°26'0 0.0
2015-Jan-22 03:23N 34°37' E 135°26'0 0.0
2015-Jan-22 02:23N 34°37' E 135°26'0 0.0
2015-Jan-22 01:23N 34°37' E 135°26'0 0.0
2015-Jan-22 00:29N 34°37' E 135°26'  
Track history (hours):
 
Tides and Currents Weather Stations Pressure Air Temp Water Temp Dewpoint Dewpoint Depression Visibility Wind Speed Wind Dir Waves Ship Positions

Orenge 7

Last reported at 2015-Jan-31 22:32 UTC. Time now 2015-Jan-31 22:41 UTC.
Position N 34°37' E 135°26'.

Length 163 m; draft 4.9 m.

Type: Passenger vessel. MMSI: 431500186.

Date/timePositionNaut miles runAvg speedWind from/ knotsBaromVisibWave heightAir tempDewpointWater temp
2015-Jan-31 22:32N 34°37' E 135°26'0 0.0
2015-Jan-31 21:32N 34°37' E 135°26'5 4.8
2015-Jan-31 20:33N 34°36' E 135°20'1717.1
2015-Jan-31 19:33N 34°37' E 134°59'1 0.0
2015-Jan-30 14:33N 34°37' E 134°58'1717.3
2015-Jan-30 13:33N 34°36' E 135°19'6 5.5
2015-Jan-30 12:31N 34°37' E 135°26'0 0.0
2015-Jan-30 11:31N 34°37' E 135°26'0 0.0
2015-Jan-30 10:31N 34°37' E 135°26'0 0.0
2015-Jan-30 09:31N 34°37' E 135°26'0 0.0
2015-Jan-30 08:31N 34°37' E 135°26'0 0.0
2015-Jan-30 07:31N 34°37' E 135°26'0 0.0
2015-Jan-30 06:31N 34°37' E 135°26'0 0.0
2015-Jan-30 05:19N 34°37' E 135°26'0 0.0
2015-Jan-30 04:19N 34°37' E 135°26'0 0.0
2015-Jan-30 03:25N 34°37' E 135°26'0 0.0
2015-Jan-30 02:31N 34°37' E 135°26'0 0.0
2015-Jan-30 01:31N 34°37' E 135°26'0 0.0
2015-Jan-30 00:31N 34°37' E 135°26'0 0.0
2015-Jan-29 23:31N 34°37' E 135°26'0 0.0
2015-Jan-29 22:25N 34°37' E 135°26'0 0.0
2015-Jan-29 21:19N 34°37' E 135°26'7 8.7
2015-Jan-29 20:34N 34°35' E 135°18'1717.2
2015-Jan-29 19:33N 34°36' E 134°57'1 0.0
2015-Jan-28 14:33N 34°37' E 134°58'1717.2
2015-Jan-28 13:33N 34°37' E 135°18'6 5.8
2015-Jan-28 12:30N 34°37' E 135°26'0 0.0
2015-Jan-28 11:30N 34°37' E 135°26'0 0.0
2015-Jan-28 10:30N 34°37' E 135°26'0 0.0
2015-Jan-28 09:30N 34°37' E 135°26'0 0.0
2015-Jan-28 08:30N 34°37' E 135°26'0 0.0
2015-Jan-28 07:24N 34°37' E 135°26'0 0.0
2015-Jan-28 06:30N 34°37' E 135°26'0 0.0
2015-Jan-28 05:24N 34°37' E 135°26'0 0.0
2015-Jan-28 04:30N 34°37' E 135°26'0 0.0
2015-Jan-28 03:30N 34°37' E 135°26'0 0.0
2015-Jan-28 02:24N 34°37' E 135°26'0 0.0
2015-Jan-28 01:30N 34°37' E 135°26'0 0.0
2015-Jan-28 00:24N 34°37' E 135°26'0 0.0
2015-Jan-27 23:12N 34°37' E 135°26'0 0.0
2015-Jan-27 22:24N 34°37' E 135°26'0 0.0
2015-Jan-27 21:24N 34°37' E 135°26'7 7.8
2015-Jan-27 20:33N 34°35' E 135°18'1818.2
2015-Jan-27 19:33N 34°36' E 134°56'1 0.0
2015-Jan-26 14:33N 34°36' E 134°56'1919.0
2015-Jan-26 13:33N 34°37' E 135°19'6 4.7
2015-Jan-26 12:18N 34°37' E 135°26'0 0.0
2015-Jan-26 11:30N 34°37' E 135°26'0 0.0
2015-Jan-26 10:24N 34°37' E 135°26'0 0.0
2015-Jan-26 09:30N 34°37' E 135°26'0 0.0
2015-Jan-26 08:30N 34°37' E 135°26'0 0.0
2015-Jan-26 07:24N 34°37' E 135°26'0 0.0
2015-Jan-26 06:24N 34°37' E 135°26'0 0.0
2015-Jan-26 05:30N 34°37' E 135°26'0 0.0
2015-Jan-26 04:30N 34°37' E 135°26'0 0.0
2015-Jan-26 03:30N 34°37' E 135°26'0 0.0
2015-Jan-26 02:30N 34°37' E 135°26'0 0.0
2015-Jan-26 01:24N 34°37' E 135°26'0 0.0
2015-Jan-26 00:30N 34°37' E 135°26'0 0.0
2015-Jan-25 23:30N 34°37' E 135°26'0 0.0
2015-Jan-25 22:30N 34°37' E 135°26'0 0.0
2015-Jan-25 21:30N 34°37' E 135°26'6 6.5
2015-Jan-25 20:33N 34°35' E 135°19'1918.6
2015-Jan-25 19:33N 34°36' E 134°56'1 0.0
2015-Jan-24 14:33N 34°37' E 134°56'1918.9
2015-Jan-24 13:33N 34°37' E 135°19'6 5.5
2015-Jan-24 12:28N 34°37' E 135°26'0 0.0
2015-Jan-24 11:28N 34°37' E 135°26'0 0.0
2015-Jan-24 10:28N 34°37' E 135°26'0 0.0
2015-Jan-24 09:28N 34°37' E 135°26'0 0.0
2015-Jan-24 08:28N 34°37' E 135°26'0 0.0
2015-Jan-24 07:28N 34°37' E 135°26'0 0.0
2015-Jan-24 06:16N 34°37' E 135°26'0 0.0
2015-Jan-24 05:28N 34°37' E 135°26'0 0.0
2015-Jan-24 04:28N 34°37' E 135°26'0 0.0
2015-Jan-24 03:22N 34°37' E 135°26'0 0.0
2015-Jan-24 02:28N 34°37' E 135°26'0 0.0
2015-Jan-24 01:28N 34°37' E 135°26'0 0.0
2015-Jan-24 00:28N 34°37' E 135°26'0 0.0
2015-Jan-23 23:22N 34°37' E 135°26'0 0.0
2015-Jan-23 22:28N 34°37' E 135°26'0 0.0
2015-Jan-23 21:28N 34°37' E 135°26'5 5.2
2015-Jan-23 20:33N 34°36' E 135°20'1817.6
2015-Jan-23 19:33N 34°37' E 134°59'2119.7
2015-Jan-23 18:29N 34°29' E 134°35'18 0.7
2015-Jan-22 14:33N 34°36' E 134°55'2019.5
2015-Jan-22 13:33N 34°37' E 135°19'6 5.2
2015-Jan-22 12:29N 34°37' E 135°26'0 0.0
2015-Jan-22 11:29N 34°37' E 135°26'0 0.0
2015-Jan-22 10:17N 34°37' E 135°26'0 0.0
2015-Jan-22 09:11N 34°37' E 135°26'0 0.0
2015-Jan-22 08:17N 34°37' E 135°26'0 0.0
2015-Jan-22 07:29N 34°37' E 135°26'0 0.0
2015-Jan-22 06:29N 34°37' E 135°26'0 0.0
2015-Jan-22 05:23N 34°37' E 135°26'0 0.0
2015-Jan-22 04:17N 34°37' E 135°26'0 0.0
2015-Jan-22 03:23N 34°37' E 135°26'0 0.0
2015-Jan-22 02:23N 34°37' E 135°26'0 0.0
2015-Jan-22 01:23N 34°37' E 135°26'0 0.0
2015-Jan-22 00:29N 34°37' E 135°26'  

Dump ship's entire track history